Time;durP1;ratioP1;P1;durP2;ratioP2;P2;SDS_P1;SDS_P2;PMS_P1;PMS_P2;Temp;Humidity;BMP_temperature;BMP_pressure;BME280_temperature;BME280_humidity;BME280_pressure;Samples;Min_cycle;Max_cycle;Signal;HPM_P1;HPM_P2
2022/11/23 00:00:19;;;;;;;7.45;3.90;;;;;;;9.70;72.70;95435.31;5134307;27;20046;-62
2022/11/23 00:02:46;;;;;;;7.65;4.00;;;;;;;9.70;72.68;95443.16;5134174;27;20043;-62
2022/11/23 00:05:13;;;;;;;7.38;4.28;;;;;;;9.65;73.03;95442.53;5134193;27;20039;-62
2022/11/23 00:07:40;;;;;;;11.35;4.50;;;;;;;9.67;73.11;95443.31;5134169;27;20074;-63
2022/11/23 00:10:10;;;;;;;9.20;4.75;;;;;;;9.57;73.65;95445.56;5134214;27;20459;-63
2022/11/23 00:12:37;;;;;;;7.57;4.80;;;;;;;9.59;73.88;95438.47;5134143;27;20047;-63
2022/11/23 00:15:05;;;;;;;8.57;5.05;;;;;;;9.65;73.63;95432.09;5133940;27;20048;-63
2022/11/23 00:17:32;;;;;;;14.65;4.78;;;;;;;9.57;74.15;95424.69;5133835;27;20264;-62
2022/11/23 00:19:59;;;;;;;10.60;4.60;;;;;;;9.58;74.10;95427.19;5133948;28;20047;-63
2022/11/23 00:22:26;;;;;;;8.13;4.53;;;;;;;9.51;74.43;95410.16;5133919;27;20138;-62
2022/11/23 00:24:53;;;;;;;8.55;4.28;;;;;;;9.48;74.70;95418.16;5134082;28;20100;-62
2022/11/23 00:27:22;;;;;;;11.68;5.05;;;;;;;9.49;74.78;95417.25;5134000;28;20134;-62
2022/11/23 00:29:49;;;;;;;5.72;3.95;;;;;;;9.52;74.90;95419.69;5133933;28;20071;-62
2022/11/23 00:32:16;;;;;;;6.60;4.78;;;;;;;9.57;75.45;95399.41;5133880;28;20142;-62
2022/11/23 00:34:44;;;;;;;7.13;4.68;;;;;;;9.54;75.89;95383.06;5133908;28;20057;-62
2022/11/23 00:37:11;;;;;;;9.27;4.90;;;;;;;9.54;76.48;95391.72;5134318;27;20058;-63
2022/11/23 00:39:38;;;;;;;11.63;5.00;;;;;;;9.51;76.94;95393.66;5137933;27;20086;-62
2022/11/23 00:42:05;;;;;;;9.73;5.60;;;;;;;9.41;77.77;95388.91;5138181;27;20043;-62
2022/11/23 00:44:33;;;;;;;12.77;4.80;;;;;;;9.37;78.46;95400.44;5137898;27;20690;-62
2022/11/23 00:47:01;;;;;;;11.05;5.55;;;;;;;9.41;78.35;95385.44;5137970;27;20126;-62
2022/11/23 00:49:28;;;;;;;12.95;4.88;;;;;;;9.51;79.09;95389.28;5137829;27;20047;-62
2022/11/23 00:51:55;;;;;;;8.80;4.93;;;;;;;9.55;79.49;95389.97;5137804;27;20078;-63
2022/11/23 00:54:22;;;;;;;10.20;5.03;;;;;;;9.61;79.97;95376.59;5137896;27;20500;-62
2022/11/23 00:56:49;;;;;;;17.40;5.70;;;;;;;9.61;80.23;95379.22;5137730;27;20050;-62
2022/11/23 00:59:16;;;;;;;7.65;5.05;;;;;;;9.60;81.84;95369.66;5137620;27;20454;-62
2022/11/23 01:01:45;;;;;;;7.82;5.20;;;;;;;9.61;82.47;95372.19;5137622;27;20047;-62
2022/11/23 01:04:12;;;;;;;10.73;5.25;;;;;;;9.65;82.55;95359.84;5137581;27;20052;-62
2022/11/23 01:06:40;;;;;;;10.40;4.65;;;;;;;9.58;83.74;95361.91;5137461;27;20043;-63
2022/11/23 01:09:11;;;;;;;8.65;4.97;;;;;;;9.58;83.13;95353.25;5137334;27;20508;-62
2022/11/23 01:11:37;;;;;;;;;;;;;;;9.47;84.22;95366.88;5137966;27;20122;-62
2022/11/23 01:14:05;;;;;;;7.10;4.93;;;;;;;9.43;84.52;95362.75;5137334;27;19934;-63
2022/11/23 01:16:34;;;;;;;9.07;5.50;;;;;;;9.44;84.92;95374.84;5137082;27;20086;-62
2022/11/23 01:19:05;;;;;;;6.93;4.80;;;;;;;9.39;85.42;95356.81;5137147;27;20085;-62
2022/11/23 01:21:34;;;;;;;8.73;4.82;;;;;;;9.43;85.57;95328.81;5137235;27;20581;-62
2022/11/23 01:24:04;;;;;;;11.73;5.50;;;;;;;9.38;86.11;95316.00;5137108;27;20082;-62
2022/11/23 01:26:32;;;;;;;6.60;3.92;;;;;;;9.33;86.27;95318.03;5137083;27;20561;-62
2022/11/23 01:28:59;;;;;;;13.20;4.97;;;;;;;9.37;86.74;95326.50;5137052;27;20452;-62
2022/11/23 01:31:27;;;;;;;6.90;5.00;;;;;;;9.39;86.73;95317.69;5137114;27;20050;-63
2022/11/23 01:33:55;;;;;;;8.13;5.80;;;;;;;9.45;86.78;95324.38;5136984;27;20126;-62
2022/11/23 01:36:25;;;;;;;8.88;4.88;;;;;;;9.44;86.63;95331.34;5136907;27;20050;-62
2022/11/23 01:38:53;;;;;;;7.97;4.32;;;;;;;9.47;86.97;95317.28;5136923;27;20062;-63
2022/11/23 01:41:22;;;;;;;10.05;4.60;;;;;;;9.39;87.38;95312.44;5136950;27;20081;-62
2022/11/23 01:43:50;;;;;;;5.70;3.53;;;;;;;9.43;87.44;95308.78;5136923;27;20047;-62
2022/11/23 01:46:18;;;;;;;6.57;4.00;;;;;;;9.42;87.89;95316.69;5136755;27;20047;-62
2022/11/23 01:48:49;;;;;;;6.53;4.07;;;;;;;9.45;87.80;95306.91;5136231;27;20051;-62
2022/11/23 01:51:19;;;;;;;7.03;3.95;;;;;;;9.48;88.50;95301.53;5136666;27;20051;-62
2022/11/23 01:53:51;;;;;;;8.48;4.40;;;;;;;9.45;88.63;95293.88;5136715;27;20082;-62
2022/11/23 01:56:23;;;;;;;5.88;4.13;;;;;;;9.42;88.87;95293.19;5136660;27;20047;-62
2022/11/23 01:58:53;;;;;;;5.72;3.80;;;;;;;9.44;89.31;95289.56;5136400;27;20784;-62
2022/11/23 02:01:21;;;;;;;8.40;3.45;;;;;;;9.45;89.17;95280.00;5136501;27;20065;-61
2022/11/23 02:03:49;;;;;;;6.82;4.18;;;;;;;9.46;89.83;95290.31;5136483;27;20047;-62
2022/11/23 02:06:18;;;;;;;8.27;3.70;;;;;;;9.41;89.74;95276.69;5136413;27;20051;-62
2022/11/23 02:08:48;;;;;;;5.45;4.03;;;;;;;9.41;90.11;95283.66;5136244;27;20134;-62
2022/11/23 02:11:16;;;;;;;7.30;4.27;;;;;;;9.41;90.08;95268.84;5136221;27;20050;-62
2022/11/23 02:13:46;;;;;;;5.28;3.45;;;;;;;9.39;90.26;95273.31;5136228;27;20077;-61
2022/11/23 02:16:14;;;;;;;5.45;3.45;;;;;;;9.43;90.29;95276.59;5135887;27;20043;-62
2022/11/23 02:18:44;;;;;;;4.80;3.90;;;;;;;9.41;90.66;95263.63;5136012;27;20050;-61
2022/11/23 02:21:11;;;;;;;8.63;3.75;;;;;;;9.33;90.59;95256.22;5136075;27;20108;-62
2022/11/23 02:23:46;;;;;;;8.52;3.63;;;;;;;9.30;90.55;95255.56;5136044;27;20128;-62
2022/11/23 02:26:18;;;;;;;9.27;3.85;;;;;;;9.35;90.60;95256.13;5135963;27;20078;-62
2022/11/23 02:28:49;;;;;;;7.85;4.10;;;;;;;9.31;91.41;95241.56;5135883;27;20130;-61
2022/11/23 02:31:16;;;;;;;7.03;4.43;;;;;;;9.29;91.74;95230.38;5135825;27;20051;-62
2022/11/23 02:33:44;;;;;;;6.03;4.20;;;;;;;9.28;91.37;95239.97;5135978;27;20080;-62
2022/11/23 02:36:36;;;;;;;6.90;4.68;;;;;;;9.31;91.72;95226.75;5135767;27;20082;-62
2022/11/23 02:39:08;;;;;;;6.90;4.35;;;;;;;9.28;91.81;95226.06;5135669;27;20100;-62
2022/11/23 02:41:39;;;;;;;11.15;5.15;;;;;;;9.31;92.02;95225.91;5135798;27;20058;-62
2022/11/23 02:44:15;;;;;;;10.95;5.45;;;;;;;9.33;91.98;95211.84;5135599;27;20069;-62
2022/11/23 02:46:42;;;;;;;9.35;5.05;;;;;;;9.37;91.44;95202.09;5135568;27;20047;-62
2022/11/23 02:49:09;;;;;;;7.43;4.85;;;;;;;9.38;91.47;95202.91;5135685;27;20072;-62
2022/11/23 02:51:36;;;;;;;10.10;6.00;;;;;;;9.34;91.63;95197.88;5135507;27;20075;-62
2022/11/23 02:54:03;;;;;;;8.05;5.53;;;;;;;9.36;91.67;95203.00;5135432;27;20058;-62
2022/11/23 02:56:30;;;;;;;12.57;5.57;;;;;;;9.34;91.84;95205.69;5135433;27;20050;-61
2022/11/23 02:58:59;;;;;;;9.13;5.45;;;;;;;9.39;91.48;95215.06;5135341;27;20131;-61
2022/11/23 03:01:27;;;;;;;9.57;6.13;;;;;;;9.34;91.74;95199.66;5134385;27;20404;-62
2022/11/23 03:03:54;;;;;;;9.27;5.65;;;;;;;9.30;92.43;95193.75;5135283;27;20092;-62
2022/11/23 03:06:22;;;;;;;11.13;5.57;;;;;;;9.26;93.00;95183.56;5135136;27;20122;-62
2022/11/23 03:08:49;;;;;;;11.00;5.88;;;;;;;9.18;93.74;95190.03;5135155;27;20070;-62
2022/11/23 03:11:16;;;;;;;10.00;6.18;;;;;;;9.21;93.77;95200.31;5134995;27;20134;-62
2022/11/23 03:13:44;;;;;;;11.90;6.20;;;;;;;9.28;93.87;95207.81;5135004;27;20054;-62
2022/11/23 03:16:12;;;;;;;12.30;6.43;;;;;;;9.34;94.01;95210.91;5134851;27;20079;-62
2022/11/23 03:18:39;;;;;;;15.70;6.25;;;;;;;9.43;92.86;95216.56;5134912;27;20046;-62
2022/11/23 03:21:07;;;;;;;7.97;5.05;;;;;;;9.44;93.25;95207.81;5134965;27;20047;-62
2022/11/23 03:23:35;;;;;;;9.88;5.47;;;;;;;9.48;92.82;95207.56;5134789;27;20081;-61
2022/11/23 03:26:02;;;;;;;10.48;5.85;;;;;;;9.48;93.29;95215.41;5134922;27;20070;-61
2022/11/23 03:28:30;;;;;;;7.53;5.00;;;;;;;9.52;93.38;95210.00;5134948;27;20492;-62
2022/11/23 03:30:57;;;;;;;9.65;5.32;;;;;;;9.56;93.43;95214.97;5134694;27;20134;-61
2022/11/23 03:33:25;;;;;;;11.75;6.43;;;;;;;9.54;92.94;95211.59;5134657;27;20083;-62
2022/11/23 03:35:53;;;;;;;9.68;5.03;;;;;;;9.49;93.09;95197.97;5134514;27;20086;-62
2022/11/23 03:38:20;;;;;;;11.75;5.57;;;;;;;9.52;93.23;95205.63;5134545;27;20050;-62
2022/11/23 03:40:47;;;;;;;11.45;5.60;;;;;;;9.54;92.77;95197.72;5134556;27;20047;-62
2022/11/23 03:43:15;;;;;;;8.82;4.88;;;;;;;9.48;93.65;95201.50;5134501;27;20051;-62
2022/11/23 03:45:43;;;;;;;11.43;5.25;;;;;;;9.51;93.96;95192.66;5134554;27;20130;-61
2022/11/23 03:48:10;;;;;;;11.77;5.50;;;;;;;9.54;94.58;95203.78;5134460;27;20408;-62
2022/11/23 03:50:39;;;;;;;9.15;5.25;;;;;;;9.57;93.90;95202.78;5134357;27;20049;-62
2022/11/23 03:53:07;;;;;;;9.60;5.28;;;;;;;9.58;92.55;95210.50;5134321;27;20078;-62
2022/11/23 03:55:34;;;;;;;8.05;5.15;;;;;;;9.51;92.99;95227.44;5134302;27;20489;-62
2022/11/23 03:58:02;;;;;;;6.82;5.07;;;;;;;9.48;93.48;95207.56;5134394;27;20088;-62
2022/11/23 04:00:31;;;;;;;10.05;5.63;;;;;;;9.54;93.25;95216.00;5134272;27;20086;-62
2022/11/23 04:02:58;;;;;;;8.05;4.70;;;;;;;9.48;93.65;95214.53;5134186;27;20523;-61
2022/11/23 04:05:26;;;;;;;10.50;5.32;;;;;;;9.44;94.04;95206.06;5134212;27;20047;-62
2022/11/23 04:07:55;;;;;;;7.53;5.28;;;;;;;9.42;94.42;95201.84;5134354;27;20081;-62
2022/11/23 04:10:22;;;;;;;11.50;5.47;;;;;;;9.40;94.31;95193.25;5134436;27;20063;-61
2022/11/23 04:12:51;;;;;;;12.40;5.57;;;;;;;9.44;94.17;95181.72;5133820;27;20404;-62
2022/11/23 04:15:19;;;;;;;11.57;5.68;;;;;;;9.39;94.27;95165.47;5134050;27;20412;-62
2022/11/23 04:17:46;;;;;;;12.50;5.35;;;;;;;9.43;94.96;95180.03;5134070;27;20090;-61
2022/11/23 04:20:14;;;;;;;12.82;6.13;;;;;;;9.44;94.74;95169.50;5134033;28;20099;-62
2022/11/23 04:22:41;;;;;;;10.10;5.93;;;;;;;9.47;95.06;95182.41;5134052;28;20130;-62
2022/11/23 04:25:10;;;;;;;12.45;5.50;;;;;;;9.47;96.05;95171.97;5134074;28;20793;-62
2022/11/23 04:27:37;;;;;;;9.25;5.55;;;;;;;9.55;95.58;95176.75;5134107;28;20155;-62
2022/11/23 04:30:05;;;;;;;7.30;5.13;;;;;;;9.63;95.48;95176.31;5134043;28;20100;-62
2022/11/23 04:32:32;;;;;;;11.18;5.20;;;;;;;9.65;94.55;95182.28;5133942;28;20055;-62
2022/11/23 04:34:59;;;;;;;14.80;5.93;;;;;;;9.67;94.59;95190.91;5133939;28;20043;-62
2022/11/23 04:37:26;;;;;;;7.85;5.30;;;;;;;9.69;94.15;95189.03;5133949;27;20039;-62
2022/11/23 04:39:53;;;;;;;11.35;6.50;;;;;;;9.73;94.07;95187.09;5133655;28;20085;-62
2022/11/23 04:42:22;;;;;;;10.45;4.50;;;;;;;9.80;93.86;95167.53;5133868;28;20047;-63
2022/11/23 04:44:49;;;;;;;10.13;5.10;;;;;;;9.70;93.93;95148.09;5133847;27;20395;-62
2022/11/23 04:47:16;;;;;;;13.10;5.65;;;;;;;9.66;94.70;95170.91;5133884;27;20508;-62
2022/11/23 04:49:43;;;;;;;7.03;5.32;;;;;;;9.72;94.68;95169.72;5133867;28;20041;-62
2022/11/23 04:52:11;;;;;;;7.18;4.60;;;;;;;9.75;94.65;95166.13;5133671;28;20040;-62
2022/11/23 04:54:38;;;;;;;8.15;5.50;;;;;;;9.76;94.97;95163.41;5133746;28;20044;-62
2022/11/23 04:57:05;;;;;;;8.20;5.30;;;;;;;9.77;95.25;95165.09;5133553;28;20519;-62
2022/11/23 04:59:34;;;;;;;7.55;4.78;;;;;;;9.83;95.95;95150.84;5133634;28;20456;-62
2022/11/23 05:02:01;;;;;;;9.07;5.22;;;;;;;9.81;96.23;95148.31;5133683;27;20047;-62
2022/11/23 05:04:28;;;;;;;7.93;5.57;;;;;;;9.85;96.33;95138.53;5133626;28;20366;-62
2022/11/23 05:06:55;;;;;;;8.73;5.68;;;;;;;9.85;96.68;95138.53;5133654;28;20047;-62
2022/11/23 05:09:22;;;;;;;15.55;6.18;;;;;;;9.91;97.05;95122.53;5133492;28;20043;-62
2022/11/23 05:11:49;;;;;;;9.27;6.25;;;;;;;9.91;97.07;95135.59;5133719;28;20100;-62
2022/11/23 05:14:16;;;;;;;9.30;6.20;;;;;;;9.97;97.01;95134.38;5133434;28;20138;-62
2022/11/23 05:16:45;;;;;;;11.45;6.30;;;;;;;10.01;97.03;95140.25;5133196;28;20047;-62
2022/11/23 05:19:12;;;;;;;11.35;5.57;;;;;;;10.08;96.62;95139.81;5133401;27;20100;-62
2022/11/23 05:21:39;;;;;;;10.80;6.55;;;;;;;10.07;96.70;95130.31;5133524;28;20098;-62
2022/11/23 05:24:07;;;;;;;13.98;6.68;;;;;;;10.13;97.47;95128.25;5135283;27;20047;-62
2022/11/23 05:26:35;;;;;;;10.48;6.60;;;;;;;10.21;97.33;95139.09;5137225;27;20122;-62
2022/11/23 05:29:02;;;;;;;10.25;7.22;;;;;;;10.31;96.96;95134.16;5137100;27;20134;-62
2022/11/23 05:31:29;;;;;;;9.82;6.10;;;;;;;10.31;96.72;95148.09;5137037;27;20047;-62
2022/11/23 05:33:57;;;;;;;10.32;7.68;;;;;;;10.28;97.05;95150.88;5137196;27;20048;-62
2022/11/23 05:36:25;;;;;;;10.25;7.38;;;;;;;10.39;96.39;95165.06;5137027;27;20492;-62
2022/11/23 05:38:52;;;;;;;12.55;8.38;;;;;;;10.44;96.02;95161.25;5136906;27;20050;-62
2022/11/23 05:41:19;;;;;;;19.45;9.50;;;;;;;10.48;95.76;95154.13;5136787;27;20377;-61
2022/11/23 05:43:46;;;;;;;12.82;10.02;;;;;;;10.54;95.90;95151.09;5136793;27;20133;-62
2022/11/23 05:46:13;;;;;;;13.70;9.77;;;;;;;10.48;96.00;95143.66;5136717;27;20047;-62
2022/11/23 05:48:40;;;;;;;15.68;10.32;;;;;;;10.41;96.94;95144.94;5136795;27;20043;-62
2022/11/23 05:51:08;;;;;;;15.18;9.88;;;;;;;10.39;97.07;95160.69;5136784;27;20047;-62
2022/11/23 05:53:35;;;;;;;16.30;10.70;;;;;;;10.43;97.23;95164.81;5136678;27;20051;-62
2022/11/23 05:56:03;;;;;;;19.38;10.25;;;;;;;10.52;97.25;95162.59;5136590;27;20134;-62
2022/11/23 05:58:30;;;;;;;22.02;10.43;;;;;;;10.46;97.44;95162.03;5136617;27;20039;-62
2022/11/23 06:00:58;;;;;;;16.42;10.45;;;;;;;10.50;97.70;95167.91;5136489;27;20083;-62
2022/11/23 06:03:26;;;;;;;28.05;11.65;;;;;;;10.51;97.54;95163.53;5136583;27;20051;-62
2022/11/23 06:05:53;;;;;;;18.02;11.15;;;;;;;10.53;97.68;95159.91;5136579;27;20046;-62
2022/11/23 06:08:22;;;;;;;21.13;10.25;;;;;;;10.61;98.10;95168.13;5136190;27;20040;-62
2022/11/23 06:10:49;;;;;;;18.08;9.73;;;;;;;10.64;97.92;95167.09;5136448;27;20051;-62
2022/11/23 06:13:16;;;;;;;16.27;11.13;;;;;;;10.72;97.77;95169.25;5136294;27;20051;-62
2022/11/23 06:15:43;;;;;;;16.35;10.77;;;;;;;10.74;97.67;95170.00;5135989;27;21135;-62
2022/11/23 06:18:10;;;;;;;16.33;11.93;;;;;;;10.74;97.92;95165.59;5136238;27;20053;-62
2022/11/23 06:20:38;;;;;;;19.45;10.93;;;;;;;10.77;97.91;95161.97;5136024;27;20043;-63
2022/11/23 06:23:05;;;;;;;24.30;11.98;;;;;;;10.82;97.96;95161.69;5136197;27;20104;-61
2022/11/23 06:25:36;;;;;;;18.63;10.77;;;;;;;10.81;97.81;95152.97;5136077;27;20134;-61
2022/11/23 06:28:05;;;;;;;19.13;12.35;;;;;;;10.84;97.89;95150.19;5135812;27;20039;-62
2022/11/23 06:30:32;;;;;;;18.45;12.07;;;;;;;10.89;97.88;95146.47;5135909;27;20095;-62
2022/11/23 06:33:03;;;;;;;16.80;12.75;;;;;;;10.87;97.84;95152.63;5136013;27;20050;-62
2022/11/23 06:35:30;;;;;;;;;;;;;;;10.86;98.46;95160.56;5136455;27;20047;-62
2022/11/23 06:37:57;;;;;;;17.60;11.35;;;;;;;10.88;98.94;95163.94;5135804;27;19919;-62
2022/11/23 06:40:24;;;;;;;17.52;13.05;;;;;;;10.97;99.05;95170.38;5135788;27;20089;-62
2022/11/23 06:42:58;;;;;;;25.58;14.30;;;;;;;10.97;99.34;95170.38;5135706;27;20523;-62
2022/11/23 06:45:26;;;;;;;15.43;11.80;;;;;;;11.06;98.88;95172.44;5135781;27;20137;-62
2022/11/23 06:47:55;;;;;;;16.70;11.00;;;;;;;11.17;98.42;95176.16;5135721;27;20047;-62
2022/11/23 06:50:23;;;;;;;17.60;11.63;;;;;;;11.23;98.09;95163.50;5135561;27;20055;-61
2022/11/23 06:52:55;;;;;;;15.88;12.18;;;;;;;11.31;97.54;95162.19;5135649;27;20054;-62
2022/11/23 06:55:23;;;;;;;14.90;11.35;;;;;;;11.32;96.75;95164.69;5135509;27;20130;-62
2022/11/23 06:57:51;;;;;;;14.20;10.80;;;;;;;11.38;96.73;95179.22;5135405;27;20141;-62
2022/11/23 07:00:20;;;;;;;15.10;12.45;;;;;;;11.44;96.35;95185.84;5135267;27;20047;-62
2022/11/23 07:02:52;;;;;;;15.43;11.00;;;;;;;11.52;95.98;95182.69;5135316;27;20047;-62
2022/11/23 07:05:20;;;;;;;18.50;11.30;;;;;;;11.58;95.67;95195.41;5135320;27;20126;-62
2022/11/23 07:07:47;;;;;;;17.20;11.80;;;;;;;11.65;95.26;95204.56;5135215;27;20096;-62
2022/11/23 07:10:15;;;;;;;17.35;10.95;;;;;;;11.71;94.96;95206.78;5135391;27;20054;-62
2022/11/23 07:12:42;;;;;;;21.83;11.98;;;;;;;11.75;94.71;95205.66;5135221;27;20086;-62
2022/11/23 07:15:10;;;;;;;25.42;13.40;;;;;;;11.69;94.76;95205.22;5135080;27;20058;-62
2022/11/23 07:17:41;;;;;;;22.55;15.75;;;;;;;11.71;94.56;95205.97;5134938;27;20055;-62
2022/11/23 07:20:10;;;;;;;24.30;16.15;;;;;;;11.75;94.48;95210.06;5134931;27;20086;-62
2022/11/23 07:22:38;;;;;;;24.27;16.60;;;;;;;11.80;93.99;95204.53;5135003;27;20039;-62
2022/11/23 07:25:06;;;;;;;32.90;17.30;;;;;;;11.84;93.36;95204.25;5135019;27;20039;-62
2022/11/23 07:27:34;;;;;;;34.45;19.15;;;;;;;11.90;92.70;95197.75;5134991;27;20043;-61
2022/11/23 07:30:01;;;;;;;36.00;22.05;;;;;;;11.95;92.29;95207.94;5134921;27;20104;-62
2022/11/23 07:32:28;;;;;;;46.30;28.15;;;;;;;11.93;92.38;95204.56;5134789;27;20090;-62
2022/11/23 07:34:57;;;;;;;42.28;17.90;;;;;;;11.86;92.46;95193.66;5134660;27;20051;-62
2022/11/23 07:37:24;;;;;;;27.38;16.17;;;;;;;11.88;92.12;95208.34;5134747;27;20436;-62
2022/11/23 07:39:52;;;;;;;24.85;15.55;;;;;;;11.90;91.85;95205.63;5134601;27;20043;-62
2022/11/23 07:42:21;;;;;;;36.38;17.30;;;;;;;11.91;92.00;95194.19;5134687;27;20043;-62
2022/11/23 07:44:48;;;;;;;52.40;17.00;;;;;;;11.95;92.03;95202.72;5134595;27;20066;-62
2022/11/23 07:47:15;;;;;;;41.38;17.40;;;;;;;11.96;92.09;95200.00;5133999;27;20049;-62
2022/11/23 07:49:43;;;;;;;29.58;17.73;;;;;;;11.98;91.97;95197.28;5134446;27;20046;-62
2022/11/23 07:52:11;;;;;;;29.38;20.10;;;;;;;12.00;91.70;95203.22;5134469;27;20047;-62
2022/11/23 07:54:38;;;;;;;40.70;17.08;;;;;;;11.92;91.92;95206.34;5134345;27;20043;-62
2022/11/23 07:57:06;;;;;;;46.00;22.35;;;;;;;11.87;91.63;95206.63;5134578;27;20047;-62
2022/11/23 07:59:33;;;;;;;118.72;23.63;;;;;;;11.79;91.71;95201.06;5134519;27;20457;-61
2022/11/23 08:02:00;;;;;;;136.10;20.40;;;;;;;11.82;91.81;95200.03;5134172;27;20050;-62
2022/11/23 08:04:28;;;;;;;69.03;16.08;;;;;;;11.80;91.12;95196.69;5134306;27;20054;-62
2022/11/23 08:06:55;;;;;;;72.50;14.43;;;;;;;11.69;91.48;95202.59;5134279;27;20480;-62
2022/11/23 08:09:24;;;;;;;32.80;14.00;;;;;;;11.72;91.67;95194.53;5134250;27;20055;-62
2022/11/23 08:11:51;;;;;;;33.20;15.55;;;;;;;11.68;91.71;95193.06;5134243;27;20500;-62
2022/11/23 08:14:19;;;;;;;32.55;15.63;;;;;;;11.72;92.11;95190.16;5134214;27;20043;-62
2022/11/23 08:16:48;;;;;;;35.78;16.92;;;;;;;11.71;91.89;95195.50;5133735;27;20397;-62
2022/11/23 08:19:16;;;;;;;21.55;12.10;;;;;;;11.74;91.99;95203.16;5134146;27;20043;-62
2022/11/23 08:21:43;;;;;;;24.55;16.83;;;;;;;11.75;91.76;95212.69;5133978;27;20051;-62
2022/11/23 08:24:12;;;;;;;36.50;15.13;;;;;;;11.79;91.26;95200.22;5134081;27;20043;-62
2022/11/23 08:26:41;;;;;;;108.18;15.90;;;;;;;11.76;90.52;95198.63;5134028;27;20522;-62
2022/11/23 08:29:08;;;;;;;39.30;16.48;;;;;;;11.70;90.84;95205.13;5134098;27;20055;-62
2022/11/23 08:31:35;;;;;;;55.88;15.23;;;;;;;11.71;91.28;95198.94;5134108;27;20450;-62
2022/11/23 08:34:02;;;;;;;43.67;16.02;;;;;;;11.73;91.73;95197.06;5134028;27;20138;-62
2022/11/23 08:36:29;;;;;;;37.90;16.50;;;;;;;11.77;92.05;95196.88;5133862;27;20126;-62
2022/11/23 08:38:56;;;;;;;32.67;16.08;;;;;;;11.67;92.28;95210.56;5133889;27;20500;-61
2022/11/23 08:41:23;;;;;;;26.58;15.90;;;;;;;11.69;92.52;95207.84;5133757;27;20053;-62
2022/11/23 08:43:52;;;;;;;39.28;16.33;;;;;;;11.73;92.89;95202.31;5133804;27;20389;-62
2022/11/23 08:46:19;;;;;;;23.40;14.57;;;;;;;11.74;92.63;95211.00;5133943;27;20043;-62
2022/11/23 08:48:46;;;;;;;38.97;16.58;;;;;;;11.72;92.67;95199.78;5133728;27;20601;-62
2022/11/23 08:51:13;;;;;;;30.00;14.63;;;;;;;11.74;92.80;95213.63;5133783;27;20047;-63
2022/11/23 08:53:41;;;;;;;33.95;15.85;;;;;;;11.78;92.97;95220.34;5133745;27;20075;-62
2022/11/23 08:56:08;;;;;;;33.45;15.82;;;;;;;11.79;92.95;95213.31;5133779;27;20058;-62
2022/11/23 08:58:36;;;;;;;30.10;15.95;;;;;;;11.79;93.16;95223.78;5134931;27;20043;-62
2022/11/23 09:01:10;;;;;;;42.53;15.77;;;;;;;11.73;92.56;95225.88;5137659;27;20138;-63
2022/11/23 09:03:37;;;;;;;27.08;15.82;;;;;;;11.70;93.03;95225.22;5137599;27;20063;-62
2022/11/23 09:06:04;;;;;;;26.73;14.75;;;;;;;11.73;93.08;95214.56;5137645;27;20054;-62
2022/11/23 09:08:32;;;;;;;33.85;15.52;;;;;;;11.81;92.56;95206.22;5137587;27;20047;-62
2022/11/23 09:11:00;;;;;;;24.63;14.93;;;;;;;11.86;92.62;95204.97;5137471;27;20043;-61
2022/11/23 09:13:28;;;;;;;60.45;17.17;;;;;;;11.93;92.77;95194.09;5137433;27;20043;-62
2022/11/23 09:15:58;;;;;;;28.90;16.83;;;;;;;11.95;92.78;95187.81;5137352;27;20050;-62
2022/11/23 09:18:29;;;;;;;42.08;20.50;;;;;;;11.99;93.37;95185.84;5137426;27;20130;-62
2022/11/23 09:20:56;;;;;;;;;;;;;;;12.05;93.05;95182.81;5137723;27;20043;-62
2022/11/23 09:23:25;;;;;;;29.25;15.60;;;;;;;11.99;92.11;95178.81;5136657;27;19920;-62
2022/11/23 09:25:53;;;;;;;37.55;16.58;;;;;;;11.99;92.20;95170.13;5137229;27;20039;-62
2022/11/23 09:28:21;;;;;;;30.23;16.40;;;;;;;12.01;92.26;95155.97;5137292;27;20050;-62
2022/11/23 09:30:48;;;;;;;24.73;15.02;;;;;;;12.01;92.43;95155.13;5137164;27;20476;-62
2022/11/23 09:33:15;;;;;;;22.92;14.43;;;;;;;11.95;91.85;95150.31;5137083;27;20518;-61
2022/11/23 09:35:44;;;;;;;23.77;14.23;;;;;;;11.95;92.41;95158.97;5137114;27;20055;-62
2022/11/23 09:38:11;;;;;;;22.00;12.95;;;;;;;11.92;91.99;95168.84;5137190;27;20134;-62
2022/11/23 09:40:40;;;;;;;24.95;13.07;;;;;;;11.83;92.02;95159.81;5136833;27;20055;-61
2022/11/23 09:43:39;;;;;;;26.10;14.05;;;;;;;11.71;93.47;95164.88;5136888;27;20137;-61
2022/11/23 09:46:13;;;;;;;26.50;15.10;;;;;;;11.74;93.62;95163.88;5124865;27;20100;-62
2022/11/23 09:48:56;;;;;;;29.05;14.57;;;;;;;11.83;93.56;95162.44;5136864;27;20481;-62
2022/11/23 09:51:24;;;;;;;27.90;14.80;;;;;;;11.85;92.88;95157.91;5136810;27;20075;-62
2022/11/23 09:53:56;;;;;;;23.25;14.35;;;;;;;11.87;93.31;95162.09;5136693;27;20051;-62
2022/11/23 09:56:27;;;;;;;22.85;14.93;;;;;;;11.96;93.71;95163.31;5136737;27;20100;-63
2022/11/23 09:58:57;;;;;;;22.77;14.63;;;;;;;12.07;93.27;95159.97;5136623;27;20051;-62
2022/11/23 10:01:26;;;;;;;19.25;13.35;;;;;;;12.16;92.55;95150.66;5136482;27;20054;-62
2022/11/23 10:03:54;;;;;;;18.42;12.13;;;;;;;12.18;91.01;95143.56;5136548;27;20496;-62
2022/11/23 10:06:24;;;;;;;21.45;13.43;;;;;;;12.25;91.14;95143.97;5136500;27;20092;-62
2022/11/23 10:09:01;;;;;;;15.57;12.02;;;;;;;12.35;90.68;95144.22;5136154;27;20053;-62
2022/11/23 10:11:42;;;;;;;16.13;11.07;;;;;;;12.40;89.94;95142.09;5136356;27;20130;-62
2022/11/23 10:14:23;;;;;;;17.88;10.93;;;;;;;12.49;89.45;95138.00;5136349;27;20075;-62
2022/11/23 10:16:59;;;;;;;16.73;10.52;;;;;;;12.58;89.23;95137.41;5136006;27;20047;-62
2022/11/23 10:19:39;;;;;;;12.98;10.05;;;;;;;12.62;87.97;95143.28;5136184;27;20559;-62
2022/11/23 10:22:12;;;;;;;10.68;7.70;;;;;;;12.72;87.55;95132.97;5136171;27;20108;-62
2022/11/23 10:24:46;;;;;;;17.48;11.18;;;;;;;12.77;86.53;95126.47;5136131;27;20126;-62
2022/11/23 10:27:16;;;;;;;12.77;9.95;;;;;;;12.82;86.72;95123.53;5136059;27;20070;-62
2022/11/23 10:29:44;;;;;;;13.33;10.00;;;;;;;12.94;86.70;95129.69;5136068;27;20050;-62
2022/11/23 10:32:26;;;;;;;14.20;9.98;;;;;;;13.02;86.03;95132.66;5135947;27;20043;-62
2022/11/23 10:35:03;;;;;;;15.10;10.40;;;;;;;13.02;85.67;95129.16;5135902;27;20081;-62
2022/11/23 10:37:30;;;;;;;12.63;8.75;;;;;;;13.04;85.33;95123.81;5135939;27;20489;-62
2022/11/23 10:39:59;;;;;;;18.67;12.20;;;;;;;13.03;86.19;95125.59;5135853;27;20058;-62
2022/11/23 10:42:31;;;;;;;21.15;14.52;;;;;;;13.02;86.86;95130.03;5135681;27;20137;-62
2022/11/23 10:45:00;;;;;;;20.50;13.93;;;;;;;13.00;87.41;95131.06;5135767;27;20080;-63
2022/11/23 10:47:39;;;;;;;18.83;14.30;;;;;;;12.98;87.19;95131.16;5135690;27;20125;-62
2022/11/23 10:50:25;;;;;;;18.85;13.00;;;;;;;13.06;87.40;95130.63;5135598;27;20112;-62
2022/11/23 10:52:55;;;;;;;19.02;13.25;;;;;;;13.06;87.07;95130.63;5135507;27;20564;-62
2022/11/23 10:55:28;;;;;;;14.65;11.55;;;;;;;13.12;86.53;95131.97;5135694;27;20051;-62
2022/11/23 10:57:57;;;;;;;17.58;10.50;;;;;;;13.07;85.13;95124.44;5135474;27;20062;-62
2022/11/23 11:00:26;;;;;;;16.55;11.23;;;;;;;13.09;84.62;95130.41;5135478;27;20051;-62
2022/11/23 11:02:55;;;;;;;13.98;10.65;;;;;;;13.01;84.55;95132.75;5135287;27;20053;-62
2022/11/23 11:05:30;;;;;;;17.90;9.27;;;;;;;13.02;84.21;95132.66;5135665;27;20046;-62
2022/11/23 11:08:00;;;;;;;13.57;8.75;;;;;;;13.07;83.89;95137.56;5135230;27;20043;-62
2022/11/23 11:10:39;;;;;;;10.63;8.50;;;;;;;13.16;83.17;95135.22;5135163;27;20047;-62
2022/11/23 11:13:23;;;;;;;11.30;9.77;;;;;;;13.27;84.00;95145.78;5135097;27;20454;-62
2022/11/23 11:15:55;;;;;;;12.18;9.90;;;;;;;13.32;83.79;95138.44;5134883;27;20051;-62
2022/11/23 11:18:27;;;;;;;11.73;8.77;;;;;;;13.34;82.33;95138.34;5135057;27;20154;-62
2022/11/23 11:20:59;;;;;;;19.05;13.80;;;;;;;13.22;81.88;95145.31;5134389;27;20069;-62
2022/11/23 11:23:30;;;;;;;13.98;11.02;;;;;;;13.16;81.82;95140.47;5135145;27;20476;-62
2022/11/23 11:26:18;;;;;;;12.18;8.40;;;;;;;13.11;81.43;95140.81;5135075;27;20047;-63
2022/11/23 11:28:48;;;;;;;13.43;8.90;;;;;;;13.10;81.26;95136.50;5134909;27;20112;-62
2022/11/23 11:31:29;;;;;;;11.60;8.25;;;;;;;13.08;81.79;95146.25;5134911;27;20415;-62
2022/11/23 11:34:04;;;;;;;11.55;9.13;;;;;;;12.90;82.90;95144.00;5134836;27;20043;-62
2022/11/23 11:36:39;;;;;;;12.13;9.70;;;;;;;12.99;83.19;95132.84;5134799;27;20476;-62